sensor_id;sensor_type;location;lat;lon;timestamp;P1;durP1;ratioP1;P2;durP2;ratioP2
1925;SDS011;964;42.606;23.588;2024-03-08T00:01:36;24.43;;;12.17;;
1925;SDS011;964;42.606;23.588;2024-03-08T00:04:04;21.77;;;11.73;;
1925;SDS011;964;42.606;23.588;2024-03-08T00:06:32;21.73;;;10.83;;
1925;SDS011;964;42.606;23.588;2024-03-08T00:08:59;25.67;;;12.60;;
1925;SDS011;964;42.606;23.588;2024-03-08T00:11:25;26.70;;;14.07;;
1925;SDS011;964;42.606;23.588;2024-03-08T00:13:52;21.17;;;12.70;;
1925;SDS011;964;42.606;23.588;2024-03-08T00:16:19;25.17;;;13.10;;
1925;SDS011;964;42.606;23.588;2024-03-08T00:18:48;25.63;;;13.03;;
1925;SDS011;964;42.606;23.588;2024-03-08T00:21:16;23.60;;;12.57;;
1925;SDS011;964;42.606;23.588;2024-03-08T00:23:43;26.57;;;13.40;;
1925;SDS011;964;42.606;23.588;2024-03-08T00:26:11;16.70;;;10.27;;
1925;SDS011;964;42.606;23.588;2024-03-08T00:28:37;22.50;;;13.00;;
1925;SDS011;964;42.606;23.588;2024-03-08T00:31:04;20.77;;;12.30;;
1925;SDS011;964;42.606;23.588;2024-03-08T00:33:32;23.40;;;12.80;;
1925;SDS011;964;42.606;23.588;2024-03-08T00:35:59;17.50;;;9.20;;
1925;SDS011;964;42.606;23.588;2024-03-08T00:38:27;13.30;;;8.30;;
1925;SDS011;964;42.606;23.588;2024-03-08T00:40:54;10.43;;;7.70;;
1925;SDS011;964;42.606;23.588;2024-03-08T00:43:21;11.47;;;7.43;;
1925;SDS011;964;42.606;23.588;2024-03-08T00:45:47;11.00;;;7.43;;
1925;SDS011;964;42.606;23.588;2024-03-08T00:48:14;9.00;;;6.33;;
1925;SDS011;964;42.606;23.588;2024-03-08T00:50:41;10.23;;;6.50;;
1925;SDS011;964;42.606;23.588;2024-03-08T00:53:10;13.07;;;7.80;;
1925;SDS011;964;42.606;23.588;2024-03-08T00:55:38;17.73;;;8.60;;
1925;SDS011;964;42.606;23.588;2024-03-08T00:58:05;20.13;;;9.87;;
1925;SDS011;964;42.606;23.588;2024-03-08T01:00:33;15.97;;;8.47;;
1925;SDS011;964;42.606;23.588;2024-03-08T01:03:00;20.77;;;11.47;;
1925;SDS011;964;42.606;23.588;2024-03-08T01:05:28;20.50;;;11.67;;
1925;SDS011;964;42.606;23.588;2024-03-08T01:07:55;18.50;;;11.70;;
1925;SDS011;964;42.606;23.588;2024-03-08T01:10:22;17.90;;;10.10;;
1925;SDS011;964;42.606;23.588;2024-03-08T01:12:50;20.73;;;12.00;;
1925;SDS011;964;42.606;23.588;2024-03-08T01:15:17;15.90;;;10.10;;
1925;SDS011;964;42.606;23.588;2024-03-08T01:17:44;17.53;;;10.57;;
1925;SDS011;964;42.606;23.588;2024-03-08T01:20:11;19.37;;;10.87;;
1925;SDS011;964;42.606;23.588;2024-03-08T01:22:38;13.70;;;9.33;;
1925;SDS011;964;42.606;23.588;2024-03-08T01:25:05;18.57;;;10.53;;
1925;SDS011;964;42.606;23.588;2024-03-08T01:27:33;16.63;;;9.50;;
1925;SDS011;964;42.606;23.588;2024-03-08T01:30:03;15.43;;;9.27;;
1925;SDS011;964;42.606;23.588;2024-03-08T01:32:31;16.83;;;7.50;;
1925;SDS011;964;42.606;23.588;2024-03-08T01:34:58;15.83;;;9.33;;
1925;SDS011;964;42.606;23.588;2024-03-08T01:37:25;18.10;;;9.00;;
1925;SDS011;964;42.606;23.588;2024-03-08T01:39:52;16.10;;;8.27;;
1925;SDS011;964;42.606;23.588;2024-03-08T01:42:19;13.00;;;6.83;;
1925;SDS011;964;42.606;23.588;2024-03-08T01:44:45;14.63;;;8.70;;
1925;SDS011;964;42.606;23.588;2024-03-08T01:47:31;15.57;;;9.50;;
1925;SDS011;964;42.606;23.588;2024-03-08T01:53:38;11.40;;;6.53;;
1925;SDS011;964;42.606;23.588;2024-03-08T01:56:07;13.17;;;8.63;;
1925;SDS011;964;42.606;23.588;2024-03-08T01:58:34;13.73;;;8.80;;
1925;SDS011;964;42.606;23.588;2024-03-08T02:01:02;12.03;;;8.30;;
1925;SDS011;964;42.606;23.588;2024-03-08T02:03:31;8.23;;;5.57;;
1925;SDS011;964;42.606;23.588;2024-03-08T02:05:57;9.83;;;6.20;;
1925;SDS011;964;42.606;23.588;2024-03-08T02:08:24;10.33;;;6.37;;
1925;SDS011;964;42.606;23.588;2024-03-08T02:10:51;10.80;;;6.40;;
1925;SDS011;964;42.606;23.588;2024-03-08T02:13:18;17.93;;;9.10;;
1925;SDS011;964;42.606;23.588;2024-03-08T02:15:55;22.47;;;9.40;;
1925;SDS011;964;42.606;23.588;2024-03-08T02:18:24;22.90;;;8.30;;
1925;SDS011;964;42.606;23.588;2024-03-08T02:20:52;29.80;;;12.70;;
1925;SDS011;964;42.606;23.588;2024-03-08T02:23:19;25.10;;;12.27;;
1925;SDS011;964;42.606;23.588;2024-03-08T02:25:46;41.67;;;16.77;;
1925;SDS011;964;42.606;23.588;2024-03-08T02:28:14;23.30;;;11.70;;
1925;SDS011;964;42.606;23.588;2024-03-08T02:30:41;16.30;;;9.13;;
1925;SDS011;964;42.606;23.588;2024-03-08T02:33:08;13.73;;;8.27;;
1925;SDS011;964;42.606;23.588;2024-03-08T02:35:35;18.93;;;9.93;;
1925;SDS011;964;42.606;23.588;2024-03-08T02:38:03;21.90;;;13.27;;
1925;SDS011;964;42.606;23.588;2024-03-08T02:40:30;19.40;;;10.00;;
1925;SDS011;964;42.606;23.588;2024-03-08T02:42:57;12.30;;;7.50;;
1925;SDS011;964;42.606;23.588;2024-03-08T02:45:24;12.70;;;8.40;;
1925;SDS011;964;42.606;23.588;2024-03-08T02:47:51;9.17;;;5.40;;
1925;SDS011;964;42.606;23.588;2024-03-08T02:50:18;14.57;;;9.20;;
1925;SDS011;964;42.606;23.588;2024-03-08T02:52:44;11.93;;;7.63;;
1925;SDS011;964;42.606;23.588;2024-03-08T02:55:13;11.43;;;6.70;;
1925;SDS011;964;42.606;23.588;2024-03-08T02:57:41;10.27;;;6.47;;
1925;SDS011;964;42.606;23.588;2024-03-08T03:00:09;9.60;;;6.30;;
1925;SDS011;964;42.606;23.588;2024-03-08T03:02:36;11.10;;;7.10;;
1925;SDS011;964;42.606;23.588;2024-03-08T03:05:03;13.50;;;7.53;;
1925;SDS011;964;42.606;23.588;2024-03-08T03:07:31;14.73;;;6.37;;
1925;SDS011;964;42.606;23.588;2024-03-08T03:09:58;11.20;;;6.10;;
1925;SDS011;964;42.606;23.588;2024-03-08T03:12:28;6.27;;;4.40;;
1925;SDS011;964;42.606;23.588;2024-03-08T03:14:55;13.10;;;7.70;;
1925;SDS011;964;42.606;23.588;2024-03-08T03:17:22;8.63;;;5.87;;
1925;SDS011;964;42.606;23.588;2024-03-08T03:19:49;8.10;;;5.37;;
1925;SDS011;964;42.606;23.588;2024-03-08T03:22:16;15.60;;;6.57;;
1925;SDS011;964;42.606;23.588;2024-03-08T03:24:44;10.87;;;6.30;;
1925;SDS011;964;42.606;23.588;2024-03-08T03:27:11;12.70;;;7.00;;
1925;SDS011;964;42.606;23.588;2024-03-08T03:29:39;10.10;;;6.10;;
1925;SDS011;964;42.606;23.588;2024-03-08T03:32:10;6.17;;;4.30;;
1925;SDS011;964;42.606;23.588;2024-03-08T03:34:37;5.63;;;3.43;;
1925;SDS011;964;42.606;23.588;2024-03-08T03:37:04;3.60;;;2.40;;
1925;SDS011;964;42.606;23.588;2024-03-08T03:39:33;2.43;;;2.23;;
1925;SDS011;964;42.606;23.588;2024-03-08T03:42:05;2.13;;;1.93;;
1925;SDS011;964;42.606;23.588;2024-03-08T03:44:32;7.43;;;2.90;;
1925;SDS011;964;42.606;23.588;2024-03-08T03:47:01;2.70;;;2.30;;
1925;SDS011;964;42.606;23.588;2024-03-08T03:49:27;4.20;;;2.73;;
1925;SDS011;964;42.606;23.588;2024-03-08T03:51:54;5.80;;;3.07;;
1925;SDS011;964;42.606;23.588;2024-03-08T03:54:21;4.47;;;3.53;;
1925;SDS011;964;42.606;23.588;2024-03-08T03:56:48;4.60;;;3.40;;
1925;SDS011;964;42.606;23.588;2024-03-08T03:59:17;3.90;;;3.30;;
1925;SDS011;964;42.606;23.588;2024-03-08T04:01:44;4.60;;;3.30;;
1925;SDS011;964;42.606;23.588;2024-03-08T04:04:12;5.20;;;3.30;;
1925;SDS011;964;42.606;23.588;2024-03-08T04:06:39;6.10;;;3.57;;
1925;SDS011;964;42.606;23.588;2024-03-08T04:09:06;7.47;;;5.43;;
1925;SDS011;964;42.606;23.588;2024-03-08T04:11:33;6.17;;;4.50;;
1925;SDS011;964;42.606;23.588;2024-03-08T04:14:00;5.83;;;4.23;;
1925;SDS011;964;42.606;23.588;2024-03-08T04:16:26;6.17;;;3.90;;
1925;SDS011;964;42.606;23.588;2024-03-08T04:18:53;5.20;;;3.47;;
1925;SDS011;964;42.606;23.588;2024-03-08T04:21:21;6.57;;;4.20;;
1925;SDS011;964;42.606;23.588;2024-03-08T04:23:48;7.37;;;4.07;;
1925;SDS011;964;42.606;23.588;2024-03-08T04:26:15;5.27;;;3.67;;
1925;SDS011;964;42.606;23.588;2024-03-08T04:28:42;8.07;;;4.70;;
1925;SDS011;964;42.606;23.588;2024-03-08T04:31:08;9.03;;;4.70;;
1925;SDS011;964;42.606;23.588;2024-03-08T04:33:35;9.30;;;5.17;;
1925;SDS011;964;42.606;23.588;2024-03-08T04:36:02;11.00;;;5.77;;
1925;SDS011;964;42.606;23.588;2024-03-08T04:38:31;12.60;;;6.47;;
1925;SDS011;964;42.606;23.588;2024-03-08T04:40:58;14.67;;;7.17;;
1925;SDS011;964;42.606;23.588;2024-03-08T04:43:27;17.63;;;9.97;;
1925;SDS011;964;42.606;23.588;2024-03-08T04:45:55;14.87;;;7.90;;
1925;SDS011;964;42.606;23.588;2024-03-08T04:48:22;10.80;;;6.80;;
1925;SDS011;964;42.606;23.588;2024-03-08T04:50:49;12.30;;;7.20;;
1925;SDS011;964;42.606;23.588;2024-03-08T04:53:15;12.40;;;7.97;;
1925;SDS011;964;42.606;23.588;2024-03-08T04:55:44;9.23;;;5.80;;
1925;SDS011;964;42.606;23.588;2024-03-08T04:58:11;10.70;;;7.50;;
1925;SDS011;964;42.606;23.588;2024-03-08T05:00:38;10.30;;;6.77;;
1925;SDS011;964;42.606;23.588;2024-03-08T05:03:04;10.90;;;5.73;;
1925;SDS011;964;42.606;23.588;2024-03-08T05:05:31;9.07;;;6.70;;
1925;SDS011;964;42.606;23.588;2024-03-08T05:07:58;10.07;;;6.37;;
1925;SDS011;964;42.606;23.588;2024-03-08T05:10:26;11.40;;;7.77;;
1925;SDS011;964;42.606;23.588;2024-03-08T05:12:54;8.33;;;6.33;;
1925;SDS011;964;42.606;23.588;2024-03-08T05:15:21;11.40;;;6.90;;
1925;SDS011;964;42.606;23.588;2024-03-08T05:17:48;9.37;;;6.23;;
1925;SDS011;964;42.606;23.588;2024-03-08T05:20:14;11.33;;;7.57;;
1925;SDS011;964;42.606;23.588;2024-03-08T05:22:42;11.80;;;6.60;;
1925;SDS011;964;42.606;23.588;2024-03-08T05:25:09;13.77;;;6.77;;
1925;SDS011;964;42.606;23.588;2024-03-08T05:27:35;9.07;;;6.37;;
1925;SDS011;964;42.606;23.588;2024-03-08T05:30:04;9.30;;;6.60;;
1925;SDS011;964;42.606;23.588;2024-03-08T05:32:32;6.50;;;4.80;;
1925;SDS011;964;42.606;23.588;2024-03-08T05:34:59;10.63;;;5.60;;
1925;SDS011;964;42.606;23.588;2024-03-08T05:37:25;10.53;;;6.77;;
1925;SDS011;964;42.606;23.588;2024-03-08T05:39:53;9.90;;;6.00;;
1925;SDS011;964;42.606;23.588;2024-03-08T05:42:20;7.07;;;4.90;;
1925;SDS011;964;42.606;23.588;2024-03-08T05:44:47;8.17;;;6.37;;
1925;SDS011;964;42.606;23.588;2024-03-08T05:47:16;13.10;;;6.27;;
1925;SDS011;964;42.606;23.588;2024-03-08T05:49:43;15.90;;;9.30;;
1925;SDS011;964;42.606;23.588;2024-03-08T05:52:10;25.27;;;11.97;;
1925;SDS011;964;42.606;23.588;2024-03-08T05:54:37;12.23;;;7.37;;
1925;SDS011;964;42.606;23.588;2024-03-08T05:57:04;7.87;;;5.70;;
1925;SDS011;964;42.606;23.588;2024-03-08T05:59:31;11.30;;;8.20;;
1925;SDS011;964;42.606;23.588;2024-03-08T06:01:58;12.53;;;10.60;;
1925;SDS011;964;42.606;23.588;2024-03-08T06:04:26;14.30;;;9.97;;
1925;SDS011;964;42.606;23.588;2024-03-08T06:06:54;8.70;;;6.37;;
1925;SDS011;964;42.606;23.588;2024-03-08T06:09:23;8.97;;;5.70;;
1925;SDS011;964;42.606;23.588;2024-03-08T06:11:50;13.47;;;8.00;;
1925;SDS011;964;42.606;23.588;2024-03-08T06:14:17;11.50;;;7.50;;
1925;SDS011;964;42.606;23.588;2024-03-08T06:16:44;9.30;;;7.30;;
1925;SDS011;964;42.606;23.588;2024-03-08T06:19:10;9.93;;;7.53;;
1925;SDS011;964;42.606;23.588;2024-03-08T06:21:39;10.17;;;7.07;;
1925;SDS011;964;42.606;23.588;2024-03-08T06:24:06;7.53;;;5.73;;
1925;SDS011;964;42.606;23.588;2024-03-08T06:26:33;10.30;;;6.93;;
1925;SDS011;964;42.606;23.588;2024-03-08T06:29:02;8.53;;;6.40;;
1925;SDS011;964;42.606;23.588;2024-03-08T06:31:31;7.93;;;6.40;;
1925;SDS011;964;42.606;23.588;2024-03-08T06:33:58;9.00;;;6.23;;
1925;SDS011;964;42.606;23.588;2024-03-08T06:36:25;6.33;;;5.33;;
1925;SDS011;964;42.606;23.588;2024-03-08T06:38:54;8.67;;;6.80;;
1925;SDS011;964;42.606;23.588;2024-03-08T06:41:22;7.27;;;6.00;;
1925;SDS011;964;42.606;23.588;2024-03-08T06:43:49;10.43;;;6.80;;
1925;SDS011;964;42.606;23.588;2024-03-08T06:46:16;6.17;;;5.23;;
1925;SDS011;964;42.606;23.588;2024-03-08T06:48:45;15.17;;;6.47;;
1925;SDS011;964;42.606;23.588;2024-03-08T06:51:12;8.17;;;6.60;;
1925;SDS011;964;42.606;23.588;2024-03-08T06:53:39;9.67;;;6.30;;
1925;SDS011;964;42.606;23.588;2024-03-08T06:56:07;8.47;;;5.03;;
1925;SDS011;964;42.606;23.588;2024-03-08T06:58:34;9.67;;;7.23;;
1925;SDS011;964;42.606;23.588;2024-03-08T07:01:01;7.10;;;5.60;;
1925;SDS011;964;42.606;23.588;2024-03-08T07:03:29;6.20;;;5.50;;
1925;SDS011;964;42.606;23.588;2024-03-08T07:05:57;6.17;;;4.67;;
1925;SDS011;964;42.606;23.588;2024-03-08T07:08:24;6.60;;;5.10;;
1925;SDS011;964;42.606;23.588;2024-03-08T07:10:52;6.80;;;5.37;;
1925;SDS011;964;42.606;23.588;2024-03-08T07:13:20;5.03;;;4.43;;
1925;SDS011;964;42.606;23.588;2024-03-08T07:15:47;5.03;;;4.27;;
1925;SDS011;964;42.606;23.588;2024-03-08T07:18:13;8.97;;;6.00;;
1925;SDS011;964;42.606;23.588;2024-03-08T07:20:40;6.00;;;4.90;;
1925;SDS011;964;42.606;23.588;2024-03-08T07:23:08;7.03;;;5.60;;
1925;SDS011;964;42.606;23.588;2024-03-08T07:25:35;6.93;;;5.60;;
1925;SDS011;964;42.606;23.588;2024-03-08T07:28:04;7.63;;;5.50;;
1925;SDS011;964;42.606;23.588;2024-03-08T07:30:33;6.03;;;4.47;;
1925;SDS011;964;42.606;23.588;2024-03-08T07:33:33;5.20;;;4.10;;
1925;SDS011;964;42.606;23.588;2024-03-08T07:36:00;6.47;;;4.17;;
1925;SDS011;964;42.606;23.588;2024-03-08T07:38:27;5.70;;;4.83;;
1925;SDS011;964;42.606;23.588;2024-03-08T07:40:54;10.13;;;7.47;;
1925;SDS011;964;42.606;23.588;2024-03-08T07:43:22;10.20;;;7.50;;
1925;SDS011;964;42.606;23.588;2024-03-08T07:45:50;7.20;;;4.93;;
1925;SDS011;964;42.606;23.588;2024-03-08T07:48:18;5.47;;;4.30;;
1925;SDS011;964;42.606;23.588;2024-03-08T07:50:46;7.27;;;4.70;;
1925;SDS011;964;42.606;23.588;2024-03-08T07:53:15;5.50;;;4.07;;
1925;SDS011;964;42.606;23.588;2024-03-08T07:55:42;5.97;;;4.27;;
1925;SDS011;964;42.606;23.588;2024-03-08T07:58:09;4.70;;;3.63;;
1925;SDS011;964;42.606;23.588;2024-03-08T08:00:38;6.73;;;4.97;;
1925;SDS011;964;42.606;23.588;2024-03-08T08:03:07;5.90;;;4.50;;
1925;SDS011;964;42.606;23.588;2024-03-08T08:05:35;4.47;;;4.07;;
1925;SDS011;964;42.606;23.588;2024-03-08T08:08:04;4.30;;;3.90;;
1925;SDS011;964;42.606;23.588;2024-03-08T08:10:31;5.83;;;4.00;;
1925;SDS011;964;42.606;23.588;2024-03-08T08:12:58;5.83;;;4.00;;
1925;SDS011;964;42.606;23.588;2024-03-08T08:15:25;4.43;;;3.37;;
1925;SDS011;964;42.606;23.588;2024-03-08T08:17:53;3.93;;;3.50;;
1925;SDS011;964;42.606;23.588;2024-03-08T08:20:21;4.63;;;3.40;;
1925;SDS011;964;42.606;23.588;2024-03-08T08:22:48;4.87;;;3.50;;
1925;SDS011;964;42.606;23.588;2024-03-08T08:25:15;4.27;;;3.53;;
1925;SDS011;964;42.606;23.588;2024-03-08T08:27:45;3.43;;;2.87;;
1925;SDS011;964;42.606;23.588;2024-03-08T08:30:12;4.80;;;3.53;;
1925;SDS011;964;42.606;23.588;2024-03-08T08:32:39;4.30;;;3.90;;
1925;SDS011;964;42.606;23.588;2024-03-08T08:35:07;5.43;;;4.07;;
1925;SDS011;964;42.606;23.588;2024-03-08T08:37:39;4.73;;;3.53;;
1925;SDS011;964;42.606;23.588;2024-03-08T08:40:06;4.50;;;3.17;;
1925;SDS011;964;42.606;23.588;2024-03-08T08:42:35;3.30;;;3.00;;
1925;SDS011;964;42.606;23.588;2024-03-08T08:45:03;4.57;;;3.97;;
1925;SDS011;964;42.606;23.588;2024-03-08T08:47:33;3.40;;;3.10;;
1925;SDS011;964;42.606;23.588;2024-03-08T08:50:00;3.17;;;2.93;;
1925;SDS011;964;42.606;23.588;2024-03-08T08:52:27;3.53;;;3.10;;
1925;SDS011;964;42.606;23.588;2024-03-08T08:54:56;3.60;;;2.87;;
1925;SDS011;964;42.606;23.588;2024-03-08T08:57:23;3.80;;;3.07;;
1925;SDS011;964;42.606;23.588;2024-03-08T08:59:52;3.33;;;3.00;;
1925;SDS011;964;42.606;23.588;2024-03-08T09:02:19;3.00;;;2.70;;
1925;SDS011;964;42.606;23.588;2024-03-08T09:04:46;3.20;;;2.90;;
1925;SDS011;964;42.606;23.588;2024-03-08T09:07:14;3.10;;;2.87;;
1925;SDS011;964;42.606;23.588;2024-03-08T09:09:41;3.07;;;2.43;;
1925;SDS011;964;42.606;23.588;2024-03-08T09:12:10;2.93;;;2.37;;
1925;SDS011;964;42.606;23.588;2024-03-08T09:14:38;2.57;;;2.37;;
1925;SDS011;964;42.606;23.588;2024-03-08T09:17:06;3.13;;;2.33;;
1925;SDS011;964;42.606;23.588;2024-03-08T09:19:33;2.30;;;2.10;;
1925;SDS011;964;42.606;23.588;2024-03-08T09:22:00;2.67;;;2.47;;
1925;SDS011;964;42.606;23.588;2024-03-08T09:24:28;2.23;;;1.90;;
1925;SDS011;964;42.606;23.588;2024-03-08T09:26:56;2.30;;;2.10;;
1925;SDS011;964;42.606;23.588;2024-03-08T09:29:25;2.73;;;2.30;;
1925;SDS011;964;42.606;23.588;2024-03-08T09:31:52;2.20;;;2.00;;
1925;SDS011;964;42.606;23.588;2024-03-08T09:34:18;2.60;;;2.40;;
1925;SDS011;964;42.606;23.588;2024-03-08T09:36:45;4.60;;;3.77;;
1925;SDS011;964;42.606;23.588;2024-03-08T09:39:12;3.37;;;3.07;;
1925;SDS011;964;42.606;23.588;2024-03-08T09:41:42;6.40;;;5.63;;
1925;SDS011;964;42.606;23.588;2024-03-08T09:44:09;2.50;;;2.30;;
1925;SDS011;964;42.606;23.588;2024-03-08T09:46:38;2.20;;;2.00;;
1925;SDS011;964;42.606;23.588;2024-03-08T09:49:06;3.53;;;3.23;;
1925;SDS011;964;42.606;23.588;2024-03-08T09:51:33;6.20;;;3.83;;
1925;SDS011;964;42.606;23.588;2024-03-08T09:54:01;3.47;;;2.50;;
1925;SDS011;964;42.606;23.588;2024-03-08T09:56:29;3.27;;;2.97;;
1925;SDS011;964;42.606;23.588;2024-03-08T09:58:59;3.90;;;3.20;;
1925;SDS011;964;42.606;23.588;2024-03-08T10:02:07;2.97;;;2.43;;
1925;SDS011;964;42.606;23.588;2024-03-08T10:04:40;3.73;;;3.03;;
1925;SDS011;964;42.606;23.588;2024-03-08T10:07:07;2.73;;;2.53;;
1925;SDS011;964;42.606;23.588;2024-03-08T10:09:34;2.93;;;2.63;;
1925;SDS011;964;42.606;23.588;2024-03-08T10:12:01;2.50;;;2.30;;
1925;SDS011;964;42.606;23.588;2024-03-08T10:14:28;3.77;;;2.67;;
1925;SDS011;964;42.606;23.588;2024-03-08T10:16:54;3.80;;;2.47;;
1925;SDS011;964;42.606;23.588;2024-03-08T10:19:26;3.10;;;2.40;;
1925;SDS011;964;42.606;23.588;2024-03-08T10:21:55;2.50;;;2.30;;
1925;SDS011;964;42.606;23.588;2024-03-08T10:24:23;2.60;;;2.40;;
1925;SDS011;964;42.606;23.588;2024-03-08T10:26:51;5.73;;;3.23;;
1925;SDS011;964;42.606;23.588;2024-03-08T10:29:19;3.80;;;2.40;;
1925;SDS011;964;42.606;23.588;2024-03-08T10:31:46;2.40;;;2.20;;
1925;SDS011;964;42.606;23.588;2024-03-08T10:34:13;3.00;;;2.37;;
1925;SDS011;964;42.606;23.588;2024-03-08T10:36:41;2.50;;;2.30;;
1925;SDS011;964;42.606;23.588;2024-03-08T10:39:10;2.53;;;2.33;;
1925;SDS011;964;42.606;23.588;2024-03-08T10:41:48;3.20;;;2.90;;
1925;SDS011;964;42.606;23.588;2024-03-08T10:44:20;3.20;;;2.90;;
1925;SDS011;964;42.606;23.588;2024-03-08T10:47:00;3.30;;;2.93;;
1925;SDS011;964;42.606;23.588;2024-03-08T10:49:31;4.30;;;3.60;;
1925;SDS011;964;42.606;23.588;2024-03-08T10:52:01;3.20;;;2.90;;
1925;SDS011;964;42.606;23.588;2024-03-08T10:54:30;3.70;;;3.40;;
1925;SDS011;964;42.606;23.588;2024-03-08T10:56:58;3.30;;;2.80;;
1925;SDS011;964;42.606;23.588;2024-03-08T10:59:26;2.60;;;2.40;;
1925;SDS011;964;42.606;23.588;2024-03-08T11:01:53;6.30;;;3.33;;
1925;SDS011;964;42.606;23.588;2024-03-08T11:04:21;3.90;;;3.40;;
1925;SDS011;964;42.606;23.588;2024-03-08T11:06:49;4.63;;;3.37;;
1925;SDS011;964;42.606;23.588;2024-03-08T11:09:29;3.93;;;3.53;;
1925;SDS011;964;42.606;23.588;2024-03-08T11:14:45;3.20;;;2.90;;
1925;SDS011;964;42.606;23.588;2024-03-08T11:17:14;3.30;;;2.97;;
1925;SDS011;964;42.606;23.588;2024-03-08T11:19:46;6.53;;;3.50;;
1925;SDS011;964;42.606;23.588;2024-03-08T11:22:20;7.00;;;3.50;;
1925;SDS011;964;42.606;23.588;2024-03-08T11:24:51;3.50;;;3.03;;
1925;SDS011;964;42.606;23.588;2024-03-08T11:27:18;3.37;;;2.73;;
1925;SDS011;964;42.606;23.588;2024-03-08T11:29:45;4.40;;;3.10;;
1925;SDS011;964;42.606;23.588;2024-03-08T11:32:27;6.30;;;3.90;;
1925;SDS011;964;42.606;23.588;2024-03-08T11:34:57;7.43;;;4.80;;
1925;SDS011;964;42.606;23.588;2024-03-08T11:37:32;4.47;;;3.77;;
1925;SDS011;964;42.606;23.588;2024-03-08T11:40:02;3.83;;;3.33;;
1925;SDS011;964;42.606;23.588;2024-03-08T11:42:39;3.40;;;3.07;;
1925;SDS011;964;42.606;23.588;2024-03-08T11:45:08;4.17;;;2.97;;
1925;SDS011;964;42.606;23.588;2024-03-08T11:47:36;3.33;;;2.63;;
1925;SDS011;964;42.606;23.588;2024-03-08T11:50:05;4.73;;;3.40;;
1925;SDS011;964;42.606;23.588;2024-03-08T11:52:36;3.37;;;3.00;;
1925;SDS011;964;42.606;23.588;2024-03-08T11:55:04;2.80;;;2.60;;
1925;SDS011;964;42.606;23.588;2024-03-08T11:57:32;4.93;;;3.47;;
1925;SDS011;964;42.606;23.588;2024-03-08T11:59:59;3.27;;;2.93;;
1925;SDS011;964;42.606;23.588;2024-03-08T12:02:31;2.70;;;2.40;;
1925;SDS011;964;42.606;23.588;2024-03-08T12:05:00;3.27;;;2.97;;
1925;SDS011;964;42.606;23.588;2024-03-08T12:07:28;5.13;;;3.20;;
1925;SDS011;964;42.606;23.588;2024-03-08T12:10:18;3.50;;;3.03;;
1925;SDS011;964;42.606;23.588;2024-03-08T12:12:47;3.40;;;3.10;;
1925;SDS011;964;42.606;23.588;2024-03-08T12:15:16;4.50;;;2.50;;
1925;SDS011;964;42.606;23.588;2024-03-08T12:17:44;3.37;;;3.07;;
1925;SDS011;964;42.606;23.588;2024-03-08T12:20:14;3.50;;;2.93;;
1925;SDS011;964;42.606;23.588;2024-03-08T12:22:42;2.80;;;2.43;;
1925;SDS011;964;42.606;23.588;2024-03-08T12:25:09;2.50;;;2.30;;
1925;SDS011;964;42.606;23.588;2024-03-08T12:27:39;4.60;;;2.50;;
1925;SDS011;964;42.606;23.588;2024-03-08T12:30:16;2.90;;;2.60;;
1925;SDS011;964;42.606;23.588;2024-03-08T12:32:48;3.77;;;3.13;;
1925;SDS011;964;42.606;23.588;2024-03-08T12:35:18;3.00;;;2.80;;
1925;SDS011;964;42.606;23.588;2024-03-08T12:37:47;2.30;;;2.10;;
1925;SDS011;964;42.606;23.588;2024-03-08T12:40:16;4.67;;;2.77;;
1925;SDS011;964;42.606;23.588;2024-03-08T12:42:45;3.10;;;2.77;;
1925;SDS011;964;42.606;23.588;2024-03-08T12:45:13;2.67;;;2.47;;
1925;SDS011;964;42.606;23.588;2024-03-08T12:47:40;3.43;;;2.00;;
1925;SDS011;964;42.606;23.588;2024-03-08T12:50:09;2.50;;;2.30;;
1925;SDS011;964;42.606;23.588;2024-03-08T12:52:36;3.03;;;1.90;;
1925;SDS011;964;42.606;23.588;2024-03-08T12:55:03;2.33;;;2.10;;
1925;SDS011;964;42.606;23.588;2024-03-08T12:57:32;2.23;;;1.87;;
1925;SDS011;964;42.606;23.588;2024-03-08T13:00:02;2.50;;;2.20;;
1925;SDS011;964;42.606;23.588;2024-03-08T13:02:29;2.50;;;2.30;;
1925;SDS011;964;42.606;23.588;2024-03-08T13:04:58;2.50;;;2.13;;
1925;SDS011;964;42.606;23.588;2024-03-08T13:07:25;2.40;;;2.20;;
1925;SDS011;964;42.606;23.588;2024-03-08T13:09:52;4.37;;;2.00;;
1925;SDS011;964;42.606;23.588;2024-03-08T13:12:20;2.50;;;2.30;;
1925;SDS011;964;42.606;23.588;2024-03-08T13:14:49;3.10;;;2.37;;
1925;SDS011;964;42.606;23.588;2024-03-08T13:17:17;2.33;;;2.13;;
1925;SDS011;964;42.606;23.588;2024-03-08T13:19:44;2.50;;;2.30;;
1925;SDS011;964;42.606;23.588;2024-03-08T13:22:11;4.57;;;3.57;;
1925;SDS011;964;42.606;23.588;2024-03-08T13:24:38;7.13;;;4.90;;
1925;SDS011;964;42.606;23.588;2024-03-08T13:27:06;4.47;;;3.90;;
1925;SDS011;964;42.606;23.588;2024-03-08T13:29:44;3.97;;;3.23;;
1925;SDS011;964;42.606;23.588;2024-03-08T13:32:13;3.97;;;3.50;;
1925;SDS011;964;42.606;23.588;2024-03-08T13:34:42;6.00;;;4.33;;
1925;SDS011;964;42.606;23.588;2024-03-08T13:37:10;4.43;;;4.00;;
1925;SDS011;964;42.606;23.588;2024-03-08T13:39:37;4.43;;;3.80;;
1925;SDS011;964;42.606;23.588;2024-03-08T13:42:08;5.70;;;4.77;;
1925;SDS011;964;42.606;23.588;2024-03-08T13:44:38;4.20;;;3.80;;
1925;SDS011;964;42.606;23.588;2024-03-08T13:47:05;5.60;;;3.97;;
1925;SDS011;964;42.606;23.588;2024-03-08T13:49:32;7.57;;;5.03;;
1925;SDS011;964;42.606;23.588;2024-03-08T13:52:00;5.00;;;4.40;;
1925;SDS011;964;42.606;23.588;2024-03-08T13:54:27;4.90;;;3.70;;
1925;SDS011;964;42.606;23.588;2024-03-08T13:56:56;2.97;;;2.67;;
1925;SDS011;964;42.606;23.588;2024-03-08T13:59:23;3.47;;;3.17;;
1925;SDS011;964;42.606;23.588;2024-03-08T14:01:54;14.40;;;12.90;;
1925;SDS011;964;42.606;23.588;2024-03-08T14:04:21;16.63;;;14.70;;
1925;SDS011;964;42.606;23.588;2024-03-08T14:06:49;4.23;;;3.50;;
1925;SDS011;964;42.606;23.588;2024-03-08T14:09:18;3.67;;;3.37;;
1925;SDS011;964;42.606;23.588;2024-03-08T14:11:45;4.50;;;4.10;;
1925;SDS011;964;42.606;23.588;2024-03-08T14:14:12;2.80;;;2.60;;
1925;SDS011;964;42.606;23.588;2024-03-08T14:16:39;3.83;;;3.43;;
1925;SDS011;964;42.606;23.588;2024-03-08T14:19:06;3.30;;;3.00;;
1925;SDS011;964;42.606;23.588;2024-03-08T14:21:35;5.40;;;4.40;;
1925;SDS011;964;42.606;23.588;2024-03-08T14:24:04;10.50;;;7.90;;
1925;SDS011;964;42.606;23.588;2024-03-08T14:26:33;10.83;;;7.53;;
1925;SDS011;964;42.606;23.588;2024-03-08T14:29:01;4.50;;;4.10;;
1925;SDS011;964;42.606;23.588;2024-03-08T14:31:30;7.90;;;5.97;;
1925;SDS011;964;42.606;23.588;2024-03-08T14:33:56;4.97;;;4.40;;
1925;SDS011;964;42.606;23.588;2024-03-08T14:36:24;6.90;;;5.03;;
1925;SDS011;964;42.606;23.588;2024-03-08T14:38:51;4.90;;;3.97;;
1925;SDS011;964;42.606;23.588;2024-03-08T14:41:18;10.67;;;7.80;;
1925;SDS011;964;42.606;23.588;2024-03-08T14:43:46;6.07;;;5.47;;
1925;SDS011;964;42.606;23.588;2024-03-08T14:46:13;8.90;;;5.80;;
1925;SDS011;964;42.606;23.588;2024-03-08T14:48:42;7.27;;;6.13;;
1925;SDS011;964;42.606;23.588;2024-03-08T14:51:09;8.27;;;5.30;;
1925;SDS011;964;42.606;23.588;2024-03-08T14:53:39;33.13;;;13.70;;
1925;SDS011;964;42.606;23.588;2024-03-08T14:56:07;9.50;;;5.60;;
1925;SDS011;964;42.606;23.588;2024-03-08T14:58:34;31.20;;;12.53;;
1925;SDS011;964;42.606;23.588;2024-03-08T15:01:04;10.67;;;7.23;;
1925;SDS011;964;42.606;23.588;2024-03-08T15:03:34;11.23;;;6.83;;
1925;SDS011;964;42.606;23.588;2024-03-08T15:06:02;9.07;;;5.27;;
1925;SDS011;964;42.606;23.588;2024-03-08T15:08:33;6.63;;;5.93;;
1925;SDS011;964;42.606;23.588;2024-03-08T15:11:00;4.33;;;3.77;;
1925;SDS011;964;42.606;23.588;2024-03-08T15:13:27;7.90;;;5.07;;
1925;SDS011;964;42.606;23.588;2024-03-08T15:16:05;8.33;;;5.23;;
1925;SDS011;964;42.606;23.588;2024-03-08T15:18:33;5.67;;;4.50;;
1925;SDS011;964;42.606;23.588;2024-03-08T15:21:01;12.00;;;6.90;;
1925;SDS011;964;42.606;23.588;2024-03-08T15:23:33;10.10;;;7.97;;